Kobuk Valley National Park, AK

7:20 PM AKST on November 27, 2014 (GMT -0900)
RAWS SALMON RIVER AK US | Change Station
CLOSE
Current Station
Personal Weather Station
Location: Kiana, AK
Elevation: 1201 ft
Nearby Weather Stations

Elev 1201 ft 67.46 °N, 159.84 °W | Updated 42 minutes ago

Overcast
Overcast
13 °F
Feels Like 4 °F
N
6
Wind Variable Wind from SW
Gusts 9.0 mph

Today
High -- | Low -- °F
--% Chance of Precip.
Yesterday
High -- | Low -- °F
Precip. -- in
11:45 AM 3:12 PM
Waxing Crescent, 36% visible
Pressure 30.32 in
Visibility 10.0 miles
Clouds Overcast 8000 ft
Windchill 4 °F
Dew Point -2 °F
Humidity 51%
Rainfall 0.00 in
Snow Depth Not available.
UV 0 out of 12
Pollen Not available.
Air Quality Not available.
Flu Activity Not available.
METAR PAIK 280401Z AUTO 08010KT 10SM OVC080 M10/M16 A3018 RMK AO2 SLP265 T11001161 FZRANO

More Conditions Fewer Conditions

Pressure 30.32 in
Visibility 10.0 miles
Clouds Overcast 8000 ft
Windchill 4 °F
Dew Point -2 °F
Humidity 51%
Rainfall 0.00 in
Snow Depth Not available.
UV 0 out of 12
Pollen Not available.
Air Quality Not available.
Flu Activity Not available.
METAR PAIK 280401Z AUTO 08010KT 10SM OVC080 M10/M16 A3018 RMK AO2 SLP265 T11001161 FZRANO

More Conditions Fewer Conditions

10-Day Weather Forecast

Almanac

Astronomy

Nov. 27, 2014 Rise Set
Actual Time
Civil Twilight
Nautical Twilight
Astronomical Twilight
Moon
Length of Visible Light
Length of Day
Tomorrow will be .
, % of the Moon is Illuminated

Today's Extremes

State Highs State Lows

Community

WunderPhotos

Upload Photos

1,774,180 photos uploaded!

WunderBlogs® & News

Nearby

Air Quality

  Air Quality AQ Index Pollutant
Not available.

Snow Depth

Station Depth Elevation

Earthquake Activity

City Distance Mag. Time & Date
Minimum magnitude displayed is 2.5.

Coastal Water Temperatures

Place Temperature

Nearby Weather Stations